createdAt,value
2022-08-19T00:01:01.437Z,24.73
2022-08-19T00:06:05.036Z,25.23
2022-08-19T00:11:09.055Z,24.20
2022-08-19T00:16:25.200Z,23.50
2022-08-19T00:21:29.939Z,23.70
2022-08-19T00:26:33.363Z,23.23
2022-08-19T00:31:37.375Z,23.90
2022-08-19T00:36:42.095Z,23.75
2022-08-19T00:41:48.810Z,22.80
2022-08-19T00:46:57.930Z,23.55
2022-08-19T00:52:15.553Z,22.85
2022-08-19T00:57:24.173Z,23.00
2022-08-19T01:02:29.292Z,23.70
2022-08-19T01:07:35.922Z,23.65
2022-08-19T01:12:42.620Z,25.08
2022-08-19T01:17:47.351Z,23.50
2022-08-19T01:23:00.671Z,24.65
2022-08-19T01:28:10.815Z,24.92
2022-08-19T01:33:15.734Z,25.65
2022-08-19T01:38:28.411Z,25.65
2022-08-19T01:43:31.669Z,26.30
2022-08-19T01:48:42.858Z,28.40
2022-08-19T01:53:49.922Z,27.92
2022-08-19T01:59:01.041Z,26.40
2022-08-19T02:04:04.599Z,25.50
2022-08-19T02:09:08.259Z,26.95
2022-08-19T02:14:11.109Z,26.10
2022-08-19T02:19:14.500Z,26.92
2022-08-19T02:24:17.767Z,27.65
2022-08-19T02:29:20.760Z,29.25
2022-08-19T02:34:23.960Z,28.05
2022-08-19T02:39:27.900Z,29.15
2022-08-19T02:44:32.035Z,27.38
2022-08-19T02:49:35.220Z,29.70
2022-08-19T02:54:39.160Z,27.52
2022-08-19T02:59:42.400Z,28.75
2022-08-19T03:04:45.680Z,27.20
2022-08-19T03:09:48.911Z,30.45
2022-08-19T03:14:53.580Z,30.50
2022-08-19T03:19:57.222Z,32.20
2022-08-19T03:25:00.979Z,33.53
2022-08-19T03:30:04.902Z,36.13
2022-08-19T03:35:10.008Z,35.28
2022-08-19T03:40:13.758Z,33.63
2022-08-19T03:45:19.963Z,33.90
2022-08-19T03:50:23.240Z,34.60
2022-08-19T03:55:26.647Z,35.30
2022-08-19T04:00:29.920Z,34.17
2022-08-19T04:05:33.219Z,34.72
2022-08-19T04:10:40.330Z,35.97
2022-08-19T04:15:45.800Z,34.38
2022-08-19T04:20:50.257Z,35.40
2022-08-19T04:25:53.136Z,35.63
2022-08-19T04:30:57.408Z,33.08
2022-08-19T04:36:01.580Z,34.17
2022-08-19T04:41:23.880Z,32.92
2022-08-19T04:46:28.591Z,32.97
2022-08-19T04:51:46.315Z,32.35
2022-08-19T04:56:51.340Z,32.80
2022-08-19T05:01:54.579Z,32.75
2022-08-19T05:07:00.663Z,29.80
2022-08-19T05:12:04.701Z,27.58
2022-08-19T05:17:26.680Z,27.58
2022-08-19T05:22:36.220Z,26.13
2022-08-19T05:27:40.061Z,25.58
2022-08-19T05:32:43.771Z,25.73
2022-08-19T05:37:47.068Z,23.70
2022-08-19T05:42:55.200Z,23.55
2022-08-19T05:47:59.860Z,22.77
2022-08-19T05:53:03.142Z,22.30
2022-08-19T05:58:09.100Z,19.98
2022-08-19T06:03:13.311Z,19.77
2022-08-19T06:08:16.970Z,17.85
2022-08-19T06:13:20.983Z,18.77
2022-08-19T06:18:24.880Z,16.88
2022-08-19T06:23:28.100Z,15.43
2022-08-19T06:28:31.381Z,16.42
2022-08-19T06:33:34.223Z,15.23
2022-08-19T06:38:38.841Z,14.77
2022-08-19T06:43:43.872Z,13.77
2022-08-19T06:48:48.481Z,12.38
2022-08-19T06:53:54.874Z,12.15
2022-08-19T06:59:00.310Z,11.40
2022-08-19T07:04:03.961Z,12.02
2022-08-19T07:09:08.428Z,11.32
2022-08-19T07:14:19.299Z,11.02
2022-08-19T07:19:24.647Z,11.50
2022-08-19T07:24:30.320Z,10.80
2022-08-19T07:29:38.620Z,10.02
2022-08-19T07:34:41.977Z,10.45
2022-08-19T07:39:46.341Z,10.15
2022-08-19T07:44:50.031Z,9.55
2022-08-19T07:49:54.261Z,9.70
2022-08-19T07:54:57.539Z,10.02
2022-08-19T08:00:00.886Z,9.13
2022-08-19T08:05:43.996Z,9.48
2022-08-19T08:10:53.092Z,8.38
2022-08-19T08:16:00.073Z,8.77
2022-08-19T08:21:03.156Z,8.57
2022-08-19T08:26:06.148Z,8.05
2022-08-19T08:31:09.297Z,8.60
2022-08-19T08:36:15.200Z,6.63
2022-08-19T08:41:42.541Z,8.20
2022-08-19T08:46:52.970Z,8.35
2022-08-19T08:52:11.562Z,7.57
2022-08-19T08:57:23.681Z,8.30
2022-08-19T09:02:27.980Z,7.88
2022-08-19T09:07:46.892Z,7.72
2022-08-19T09:13:09.504Z,8.07
2022-08-19T09:18:15.149Z,7.68
2022-08-19T09:23:26.680Z,7.45
2022-08-19T09:28:30.849Z,7.50
2022-08-19T09:33:35.720Z,7.28
2022-08-19T09:38:43.627Z,7.90
2022-08-19T09:43:49.640Z,8.43
2022-08-19T09:48:53.744Z,8.23
2022-08-19T09:54:04.902Z,7.82
2022-08-19T09:59:08.620Z,8.13
2022-08-19T10:04:19.772Z,8.05
2022-08-19T10:09:26.286Z,8.52
2022-08-19T10:14:37.710Z,8.70
2022-08-19T10:19:42.729Z,8.85
2022-08-19T10:24:58.689Z,9.40
2022-08-19T10:30:01.680Z,8.68
2022-08-19T10:35:09.627Z,8.23
2022-08-19T10:40:13.249Z,7.90
2022-08-19T10:45:16.221Z,9.38
2022-08-19T10:50:38.640Z,8.98
2022-08-19T10:56:04.624Z,8.88
2022-08-19T11:01:07.850Z,8.82
2022-08-19T11:06:10.835Z,8.63
2022-08-19T11:11:14.880Z,8.70
2022-08-19T11:16:21.100Z,8.55
2022-08-19T11:21:33.559Z,8.93
2022-08-19T11:26:38.780Z,8.90
2022-08-19T11:31:45.000Z,8.82
2022-08-19T11:36:50.063Z,7.65
2022-08-19T11:41:53.381Z,8.13
2022-08-19T11:46:57.482Z,8.20
2022-08-19T11:52:04.820Z,7.90
2022-08-19T11:57:08.047Z,8.23
2022-08-19T12:02:11.899Z,8.20
2022-08-19T12:07:15.440Z,8.68
2022-08-19T12:12:18.813Z,7.90
2022-08-19T12:17:21.734Z,8.90
2022-08-19T12:22:24.962Z,8.68
2022-08-19T12:27:39.872Z,7.95
2022-08-19T12:32:43.795Z,7.70
2022-08-19T12:37:47.049Z,8.38
2022-08-19T12:43:00.620Z,7.75
2022-08-19T12:48:33.297Z,7.70
2022-08-19T12:53:30.349Z,7.88
2022-08-19T12:58:36.002Z,7.60
2022-08-19T13:03:40.762Z,8.23
2022-08-19T13:08:44.158Z,7.35
2022-08-19T13:13:52.524Z,7.50
2022-08-19T13:18:57.318Z,8.25
2022-08-19T13:24:00.727Z,8.45
2022-08-19T13:29:22.862Z,8.25
2022-08-19T13:34:35.349Z,7.80
2022-08-19T13:39:38.305Z,8.52
2022-08-19T13:44:41.600Z,8.27
2022-08-19T13:49:44.580Z,6.60
2022-08-19T13:54:47.780Z,7.20
2022-08-19T13:59:50.930Z,6.80
2022-08-19T14:04:54.500Z,6.40
2022-08-19T14:09:57.518Z,6.78
2022-08-19T14:15:01.358Z,7.07
2022-08-19T14:20:10.867Z,6.88
2022-08-19T14:25:20.540Z,5.80
2022-08-19T14:30:29.007Z,6.38
2022-08-19T14:35:36.106Z,6.80
2022-08-19T14:40:40.900Z,6.07
2022-08-19T14:45:44.185Z,6.82
2022-08-19T14:50:48.120Z,6.72
2022-08-19T14:55:51.081Z,6.57
2022-08-19T15:00:54.322Z,6.63
2022-08-19T15:05:58.942Z,6.88
2022-08-19T15:11:03.581Z,6.18
2022-08-19T15:16:06.980Z,6.07
2022-08-19T15:21:25.042Z,6.93
2022-08-19T15:26:33.882Z,6.65
2022-08-19T15:31:38.216Z,6.13
2022-08-19T15:36:42.480Z,6.47
2022-08-19T15:41:47.720Z,6.00
2022-08-19T15:46:52.382Z,6.50
2022-08-19T15:51:58.601Z,6.15
2022-08-19T15:57:30.210Z,6.32
2022-08-19T16:02:56.467Z,7.05
2022-08-19T16:07:59.621Z,6.43
2022-08-19T16:13:02.980Z,5.82
2022-08-19T16:18:06.040Z,5.60
2022-08-19T16:23:09.241Z,6.63
2022-08-19T16:28:12.679Z,6.75
2022-08-19T16:33:22.799Z,6.03
2022-08-19T16:38:28.320Z,6.03
2022-08-19T16:43:32.029Z,7.18
2022-08-19T16:48:35.700Z,6.93
2022-08-19T16:53:43.213Z,6.97
2022-08-19T16:58:46.481Z,5.82
2022-08-19T17:03:51.081Z,6.72
2022-08-19T17:08:57.720Z,6.72
2022-08-19T17:14:02.317Z,6.40
2022-08-19T17:19:06.885Z,7.78
2022-08-19T17:24:10.248Z,6.93
2022-08-19T17:29:15.698Z,6.72
2022-08-19T17:34:18.886Z,7.45
2022-08-19T17:39:22.101Z,7.30
2022-08-19T17:44:25.604Z,7.90
2022-08-19T17:49:28.760Z,8.48
2022-08-19T17:54:33.611Z,8.50
2022-08-19T17:59:39.410Z,8.95
2022-08-19T18:04:46.827Z,9.35
2022-08-19T18:09:53.311Z,9.88
2022-08-19T18:14:58.020Z,10.05
2022-08-19T18:20:01.160Z,10.90
2022-08-19T18:25:13.761Z,11.05
2022-08-19T18:30:17.519Z,11.25
2022-08-19T18:35:30.011Z,10.55
2022-08-19T18:40:51.684Z,10.80
2022-08-19T18:46:14.020Z,10.70
2022-08-19T18:51:19.340Z,10.80
2022-08-19T18:56:26.000Z,10.60
2022-08-19T19:01:37.287Z,10.15
2022-08-19T19:06:43.639Z,11.40
2022-08-19T19:11:57.131Z,11.90
2022-08-19T19:17:18.070Z,11.80
2022-08-19T19:22:26.253Z,11.93
2022-08-19T19:27:30.387Z,12.63
2022-08-19T19:32:39.341Z,12.40
2022-08-19T19:37:44.288Z,12.27
2022-08-19T19:43:01.923Z,11.15
2022-08-19T19:48:10.026Z,12.13
2022-08-19T19:53:20.677Z,13.00
2022-08-19T19:58:33.392Z,12.93
2022-08-19T20:03:45.652Z,12.75
2022-08-19T20:09:11.092Z,12.65
2022-08-19T20:14:33.551Z,11.75
2022-08-19T20:19:45.300Z,12.57
2022-08-19T20:24:57.053Z,12.32
2022-08-19T20:30:13.838Z,13.45
2022-08-19T20:35:25.312Z,13.30
2022-08-19T20:40:30.863Z,14.27
2022-08-19T20:45:38.355Z,14.30
2022-08-19T20:50:42.897Z,14.63
2022-08-19T20:55:49.918Z,14.88
2022-08-19T21:00:56.147Z,19.35
2022-08-19T21:05:59.729Z,18.55
2022-08-19T21:11:03.641Z,19.20
2022-08-19T21:16:09.014Z,17.25
2022-08-19T21:21:14.671Z,16.80
2022-08-19T21:26:20.991Z,18.92
2022-08-19T21:31:23.963Z,17.45
2022-08-19T21:36:27.275Z,17.95
2022-08-19T21:41:33.552Z,17.75
2022-08-19T21:46:36.724Z,16.95
2022-08-19T21:51:39.922Z,16.70
2022-08-19T21:56:43.806Z,18.00
2022-08-19T22:01:51.495Z,18.88
2022-08-19T22:06:59.871Z,17.83
2022-08-19T22:12:02.848Z,19.25
2022-08-19T22:17:06.531Z,19.02
2022-08-19T22:22:09.532Z,19.95
2022-08-19T22:27:12.621Z,20.25
2022-08-19T22:32:28.181Z,20.23
2022-08-19T22:37:32.101Z,20.05
2022-08-19T22:42:35.256Z,19.25
2022-08-19T22:47:39.294Z,19.95
2022-08-19T22:52:51.788Z,19.00
2022-08-19T22:57:56.090Z,18.17
2022-08-19T23:03:00.043Z,19.80
2022-08-19T23:08:03.781Z,20.17
2022-08-19T23:13:07.876Z,20.52
2022-08-19T23:18:11.913Z,20.55
2022-08-19T23:23:19.896Z,21.60
2022-08-19T23:28:42.754Z,20.40
2022-08-19T23:33:51.545Z,20.27
2022-08-19T23:38:55.392Z,20.98
2022-08-19T23:44:00.442Z,22.85
2022-08-19T23:49:04.232Z,22.85
2022-08-19T23:54:07.397Z,23.17
2022-08-19T23:59:10.551Z,23.52
